Time;durP1;ratioP1;P1;durP2;ratioP2;P2;SDS_P1;SDS_P2;PMS_P1;PMS_P2;Temp;Humidity;BMP_temperature;BMP_pressure;BME280_temperature;BME280_humidity;BME280_pressure;Samples;Min_cycle;Max_cycle;Signal;HPM_P1;HPM_P2
2020/12/29 00:01:43;;;;;;;7.00;4.63;;;4.00;99.90;;;;;;5014502;28;20065;-76
2020/12/29 00:04:12;;;;;;;11.18;5.18;;;4.10;99.90;;;;;;5014762;28;20018;-76
2020/12/29 00:06:51;;;;;;;8.68;5.25;;;4.00;99.90;;;;;;5016180;28;20055;-76
2020/12/29 00:09:19;;;;;;;9.38;5.25;;;4.10;99.90;;;;;;5018134;28;20399;-76
2020/12/29 00:11:46;;;;;;;8.45;6.00;;;4.10;99.90;;;;;;5018370;28;20025;-76
2020/12/29 00:14:13;;;;;;;10.05;5.70;;;4.10;99.90;;;;;;5018385;28;20044;-76
2020/12/29 00:16:39;;;;;;;7.07;4.88;;;4.10;99.90;;;;;;5035751;28;20030;-76
2020/12/29 00:19:09;;;;;;;6.15;4.40;;;4.20;99.90;;;;;;5036129;28;20036;-76
2020/12/29 00:21:35;;;;;;;5.75;4.50;;;4.20;99.90;;;;;;5018052;28;20030;-76
2020/12/29 00:24:00;;;;;;;9.57;5.43;;;4.30;99.90;;;;;;5017509;28;20041;-76
2020/12/29 00:26:26;;;;;;;9.93;4.75;;;4.20;99.90;;;;;;5018061;28;20020;-76
2020/12/29 00:28:52;;;;;;;6.15;5.00;;;4.20;99.90;;;;;;5018075;28;20014;-76
2020/12/29 00:31:20;;;;;;;7.95;4.95;;;4.20;99.90;;;;;;5018065;28;20029;-77
2020/12/29 00:33:47;;;;;;;6.97;5.25;;;4.20;99.90;;;;;;5018240;28;20390;-76
2020/12/29 00:36:13;;;;;;;8.18;4.75;;;4.20;99.90;;;;;;5035727;28;20109;-77
2020/12/29 00:38:39;;;;;;;7.45;4.43;;;4.20;99.90;;;;;;5035210;28;20037;-76
2020/12/29 00:41:09;;;;;;;7.00;4.82;;;4.30;99.90;;;;;;5035492;28;20037;-77
2020/12/29 00:43:36;;;;;;;6.60;4.53;;;4.30;99.90;;;;;;5017826;28;20444;-76
2020/12/29 00:46:16;;;;;;;6.18;4.65;;;4.30;99.90;;;;;;5035440;28;20033;-77
2020/12/29 00:48:42;;;;;;;8.10;5.28;;;4.30;99.90;;;;;;5017746;28;20026;-76
2020/12/29 00:51:13;;;;;;;9.38;4.15;;;4.20;99.90;;;;;;5017544;28;20099;-77
2020/12/29 00:53:39;;;;;;;9.38;4.28;;;4.20;99.90;;;;;;5017647;28;20437;-76
2020/12/29 00:56:06;;;;;;;8.63;4.90;;;4.20;99.90;;;;;;5017582;28;20018;-76
2020/12/29 00:58:32;;;;;;;11.90;5.57;;;4.20;99.90;;;;;;5017596;28;20017;-76
2020/12/29 01:00:58;;;;;;;5.85;4.47;;;4.20;99.90;;;;;;5017358;28;20128;-76
2020/12/29 01:03:24;;;;;;;9.77;4.95;;;4.10;99.90;;;;;;5017345;28;20026;-76
2020/12/29 01:05:51;;;;;;;10.30;5.43;;;4.20;99.90;;;;;;5035111;28;20140;-76
2020/12/29 01:08:17;;;;;;;8.50;4.55;;;4.20;99.90;;;;;;5034499;28;20112;-76
2020/12/29 01:10:43;;;;;;;10.18;4.97;;;4.10;99.90;;;;;;5017474;28;20056;-76
2020/12/29 01:13:13;;;;;;;7.50;4.40;;;4.10;99.90;;;;;;5017206;28;20025;-76
2020/12/29 01:15:39;;;;;;;6.75;4.28;;;4.10;99.90;;;;;;5034970;28;20029;-76
2020/12/29 01:18:05;;;;;;;6.90;4.30;;;4.10;99.90;;;;;;5016536;28;20610;-76
2020/12/29 01:20:31;;;;;;;11.02;4.72;;;4.10;99.90;;;;;;5017006;28;20041;-77
2020/12/29 01:22:57;;;;;;;8.15;4.65;;;4.20;99.90;;;;;;5016129;28;20513;-76
2020/12/29 01:25:23;;;;;;;9.95;4.35;;;4.20;99.90;;;;;;5034264;28;20072;-76
2020/12/29 01:27:49;;;;;;;7.88;4.05;;;4.20;99.90;;;;;;5031995;28;20368;-77
2020/12/29 01:30:16;;;;;;;5.45;4.13;;;4.10;99.90;;;;;;5017013;28;20117;-77
2020/12/29 01:32:42;;;;;;;10.80;5.07;;;4.10;99.90;;;;;;5016539;28;20112;-77
2020/12/29 01:35:08;;;;;;;6.07;4.13;;;4.10;99.90;;;;;;5011887;28;20022;-76
2020/12/29 01:37:35;;;;;;;7.07;4.72;;;4.10;99.90;;;;;;5013760;28;20439;-76
2020/12/29 01:40:01;;;;;;;5.72;4.10;;;4.10;99.90;;;;;;5032966;28;20033;-77
2020/12/29 01:42:27;;;;;;;7.22;4.32;;;4.10;99.90;;;;;;5016651;28;20100;-77
2020/12/29 01:44:53;;;;;;;7.72;4.10;;;4.20;99.90;;;;;;5034560;28;20056;-76
2020/12/29 01:47:21;;;;;;;8.82;4.60;;;4.20;99.90;;;;;;5033980;28;20021;-76
2020/12/29 01:49:47;;;;;;;9.30;4.43;;;4.20;99.90;;;;;;5034282;28;20075;-76
2020/12/29 01:52:13;;;;;;;6.03;3.80;;;4.20;99.90;;;;;;5016406;28;20026;-76
2020/12/29 01:54:40;;;;;;;6.13;4.20;;;4.20;99.90;;;;;;5034242;28;20029;-76
2020/12/29 01:57:07;;;;;;;7.88;4.30;;;4.20;99.90;;;;;;5016309;28;20430;-76
2020/12/29 01:59:33;;;;;;;4.38;3.78;;;4.30;99.90;;;;;;5016500;28;20056;-76
2020/12/29 02:01:59;;;;;;;9.30;3.80;;;4.30;99.90;;;;;;5016113;28;20384;-76
2020/12/29 02:04:25;;;;;;;4.88;3.97;;;4.40;99.90;;;;;;5033978;28;20037;-76
2020/12/29 02:06:51;;;;;;;3.90;3.00;;;4.40;99.90;;;;;;5016241;28;20026;-76
2020/12/29 02:09:17;;;;;;;4.85;3.60;;;4.60;99.90;;;;;;5033881;28;20505;-76
2020/12/29 02:11:42;;;;;;;3.75;3.08;;;4.70;99.90;;;;;;5033957;28;20021;-76
2020/12/29 02:14:08;;;;;;;4.25;2.80;;;4.80;99.90;;;;;;5016018;28;20010;-76
2020/12/29 02:16:42;;;;;;;8.70;6.03;;;4.90;99.90;;;;;;5015737;28;20425;-76
2020/12/29 02:19:09;;;;;;;4.82;3.00;;;5.00;99.90;;;;;;5015696;28;20025;-77
2020/12/29 02:21:35;;;;;;;5.40;3.85;;;5.10;99.90;;;;;;5015077;28;20039;-76
2020/12/29 02:24:03;;;;;;;5.28;3.78;;;5.20;99.90;;;;;;5015842;28;20021;-76
2020/12/29 02:26:34;;;;;;;5.10;3.83;;;5.30;98.70;;;;;;5015895;28;20022;-76
2020/12/29 02:29:02;;;;;;;5.70;3.33;;;5.50;96.70;;;;;;5015604;28;20025;-76
2020/12/29 02:31:27;;;;;;;3.58;3.10;;;5.50;96.70;;;;;;5015231;28;20037;-76
2020/12/29 02:33:54;;;;;;;4.13;3.72;;;5.60;95.50;;;;;;5033423;28;20592;-76
2020/12/29 02:36:20;;;;;;;3.50;3.10;;;5.60;95.40;;;;;;5015749;28;20104;-76
2020/12/29 02:38:45;;;;;;;6.65;3.08;;;5.70;96.00;;;;;;5015608;28;20121;-76
2020/12/29 02:41:12;;;;;;;5.75;3.30;;;5.70;97.60;;;;;;5015695;28;20112;-76
2020/12/29 02:43:38;;;;;;;7.15;4.80;;;5.70;98.00;;;;;;5015493;28;20026;-76
2020/12/29 02:46:04;;;;;;;15.55;8.65;;;5.70;97.00;;;;;;5033337;28;20497;-75
2020/12/29 02:48:30;;;;;;;10.98;6.82;;;5.70;97.30;;;;;;5032799;28;20030;-76
2020/12/29 02:50:56;;;;;;;4.28;2.88;;;5.70;95.50;;;;;;5015608;28;20032;-76
2020/12/29 02:53:22;;;;;;;4.95;3.47;;;5.80;94.70;;;;;;5015445;28;20087;-75
2020/12/29 02:55:47;;;;;;;6.80;4.30;;;5.80;94.50;;;;;;5033257;28;20017;-76
2020/12/29 02:58:13;;;;;;;4.47;3.10;;;5.80;93.80;;;;;;5033086;28;20421;-75
2020/12/29 03:00:39;;;;;;;11.70;5.85;;;5.80;94.20;;;;;;5032916;28;20065;-75
2020/12/29 03:03:04;;;;;;;4.40;3.47;;;5.80;93.10;;;;;;5015152;28;20437;-76
2020/12/29 03:05:30;;;;;;;8.68;3.63;;;5.80;92.40;;;;;;5033141;28;20412;-76
2020/12/29 03:07:55;;;;;;;5.43;3.92;;;5.90;92.60;;;;;;5015234;28;20026;-75
2020/12/29 03:10:22;;;;;;;8.80;4.20;;;5.90;93.30;;;;;;5033029;28;20497;-76
2020/12/29 03:12:47;;;;;;;6.47;3.05;;;5.90;92.90;;;;;;5032911;28;20036;-75
2020/12/29 03:15:13;;;;;;;4.70;3.42;;;5.90;93.30;;;;;;5015089;28;20034;-76
2020/12/29 03:17:39;;;;;;;8.85;4.95;;;5.90;95.60;;;;;;5014761;28;20040;-75
2020/12/29 03:20:05;;;;;;;12.55;5.80;;;5.90;98.60;;;;;;5031506;28;20036;-77
2020/12/29 03:22:31;;;;;;;5.00;3.17;;;5.80;99.90;;;;;;5015026;28;20028;-75
2020/12/29 03:24:57;;;;;;;7.47;3.85;;;5.70;99.90;;;;;;5014974;28;20406;-75
2020/12/29 03:27:22;;;;;;;9.70;5.20;;;5.60;99.90;;;;;;5015091;28;20060;-75
2020/12/29 03:29:48;;;;;;;6.20;4.32;;;5.60;99.90;;;;;;5031427;28;20021;-76
2020/12/29 03:32:14;;;;;;;5.80;3.45;;;5.50;99.90;;;;;;5032708;28;20025;-76
2020/12/29 03:34:40;;;;;;;5.85;3.55;;;5.50;99.90;;;;;;5031373;28;20041;-76
2020/12/29 03:37:07;;;;;;;7.50;5.13;;;5.40;99.90;;;;;;5032714;28;20048;-75
2020/12/29 03:39:33;;;;;;;26.35;11.20;;;5.30;99.90;;;;;;5032638;28;20030;-75
2020/12/29 03:41:59;;;;;;;8.38;4.30;;;5.30;99.90;;;;;;5034834;28;20514;-76
2020/12/29 03:44:25;;;;;;;5.30;3.83;;;5.30;99.90;;;;;;5035399;28;20022;-75
2020/12/29 03:46:50;;;;;;;4.93;3.97;;;5.20;99.90;;;;;;5036194;28;20033;-75
2020/12/29 03:49:17;;;;;;;7.13;4.32;;;5.20;99.90;;;;;;5018900;28;20022;-75
2020/12/29 03:51:43;;;;;;;5.32;3.53;;;5.10;99.90;;;;;;5018761;28;20079;-75
2020/12/29 03:54:09;;;;;;;5.07;3.40;;;5.10;99.90;;;;;;5036404;28;20029;-75
2020/12/29 03:56:34;;;;;;;4.43;3.33;;;5.10;99.90;;;;;;5036500;28;20022;-75
2020/12/29 03:59:00;;;;;;;6.53;4.30;;;5.10;99.90;;;;;;5018504;28;20456;-75
2020/12/29 04:01:26;;;;;;;5.32;3.50;;;5.10;99.90;;;;;;5036311;28;20113;-75
2020/12/29 04:03:51;;;;;;;6.38;3.38;;;5.00;99.90;;;;;;5036250;28;20060;-75
2020/12/29 04:06:17;;;;;;;9.15;4.45;;;5.00;99.90;;;;;;5036436;28;20021;-77
2020/12/29 04:08:43;;;;;;;9.00;5.07;;;5.10;99.90;;;;;;5036525;28;20041;-76
2020/12/29 04:11:11;;;;;;;8.82;5.22;;;5.00;99.90;;;;;;5018433;28;20021;-76
2020/12/29 04:13:36;;;;;;;10.05;4.20;;;5.00;99.90;;;;;;5018359;28;20400;-76
2020/12/29 04:16:02;;;;;;;7.97;4.13;;;5.00;99.90;;;;;;5014670;28;20029;-76
2020/12/29 04:18:28;;;;;;;5.95;3.50;;;5.00;99.90;;;;;;5015852;28;20029;-76
2020/12/29 04:20:53;;;;;;;8.77;3.88;;;5.00;99.90;;;;;;5014929;28;20034;-76
2020/12/29 04:23:19;;;;;;;6.32;3.58;;;5.00;99.90;;;;;;5016268;28;20034;-76
2020/12/29 04:25:45;;;;;;;5.95;4.00;;;5.00;99.90;;;;;;5000522;28;20040;-76
2020/12/29 04:28:10;;;;;;;5.28;3.70;;;5.00;99.90;;;;;;4999787;28;20030;-75
2020/12/29 04:30:36;;;;;;;5.32;3.72;;;5.00;99.90;;;;;;4998260;28;20029;-76
2020/12/29 04:33:02;;;;;;;4.50;2.92;;;5.10;99.90;;;;;;4998409;28;20030;-76
2020/12/29 04:35:28;;;;;;;4.90;3.20;;;5.00;99.90;;;;;;5015971;28;20018;-76
2020/12/29 04:37:54;;;;;;;6.03;3.10;;;5.10;99.90;;;;;;5016013;28;20021;-76
2020/12/29 04:40:19;;;;;;;5.15;2.97;;;5.10;99.90;;;;;;5002958;28;20041;-76
2020/12/29 04:42:46;;;;;;;4.07;3.05;;;5.10;99.90;;;;;;5035599;28;20029;-76
2020/12/29 04:45:12;;;;;;;5.85;2.63;;;5.20;99.90;;;;;;5014035;28;20050;-76
2020/12/29 04:47:40;;;;;;;3.13;2.67;;;5.20;99.90;;;;;;4998177;28;20056;-76
2020/12/29 04:50:06;;;;;;;3.25;2.63;;;5.20;99.90;;;;;;4998094;28;20021;-76
2020/12/29 04:52:32;;;;;;;4.60;3.15;;;5.20;99.90;;;;;;4996726;28;20364;-76
2020/12/29 04:54:59;;;;;;;4.90;2.63;;;5.20;99.90;;;;;;4997858;28;20076;-76
2020/12/29 04:57:26;;;;;;;7.03;3.13;;;5.20;99.90;;;;;;4998205;28;20091;-76
2020/12/29 04:59:54;;;;;;;3.50;2.75;;;5.20;99.90;;;;;;5015472;28;20496;-76
2020/12/29 05:02:20;;;;;;;2.42;1.92;;;5.20;99.90;;;;;;5014221;28;20026;-76
2020/12/29 05:04:45;;;;;;;2.85;2.50;;;5.20;99.90;;;;;;4997808;28;20029;-76
2020/12/29 05:07:11;;;;;;;4.03;2.67;;;5.20;99.90;;;;;;5015474;28;20133;-75
2020/12/29 05:09:37;;;;;;;2.97;2.35;;;5.20;99.90;;;;;;4997883;28;20104;-76
2020/12/29 05:12:03;;;;;;;2.45;2.20;;;5.30;99.90;;;;;;4997603;28;20483;-75
2020/12/29 05:14:29;;;;;;;2.97;1.92;;;5.30;99.90;;;;;;5020845;28;20467;-76
2020/12/29 05:16:55;;;;;;;1.98;1.63;;;5.30;99.90;;;;;;5016890;28;20025;-76
2020/12/29 05:19:22;;;;;;;2.53;2.00;;;5.30;99.90;;;;;;5034905;28;20391;-76
2020/12/29 05:21:49;;;;;;;2.00;1.90;;;5.30;99.90;;;;;;5016887;28;20025;-75
2020/12/29 05:24:20;;;;;;;3.17;2.78;;;5.30;99.90;;;;;;5017177;28;20030;-75
2020/12/29 05:26:50;;;;;;;3.58;2.50;;;5.30;99.90;;;;;;5016316;28;20025;-77
2020/12/29 05:29:16;;;;;;;2.45;2.25;;;5.30;99.90;;;;;;5017109;28;20037;-77
2020/12/29 05:31:45;;;;;;;3.80;2.30;;;5.30;99.90;;;;;;5016626;28;20414;-77
2020/12/29 05:34:24;;;;;;;2.38;2.10;;;5.30;99.90;;;;;;5016920;28;20032;-75
2020/12/29 05:36:52;;;;;;;3.42;2.03;;;5.30;99.90;;;;;;5016710;28;20072;-75
2020/12/29 05:39:19;;;;;;;5.28;2.40;;;5.20;99.90;;;;;;5014154;28;20033;-75
2020/12/29 05:41:47;;;;;;;2.88;2.22;;;5.20;99.90;;;;;;5011520;28;20034;-76
2020/12/29 05:44:28;;;;;;;2.90;1.50;;;5.20;99.90;;;;;;5034197;28;20025;-76
2020/12/29 05:46:55;;;;;;;2.60;1.67;;;5.20;99.90;;;;;;5016367;28;20025;-75
2020/12/29 05:49:22;;;;;;;3.17;1.80;;;5.20;99.90;;;;;;5016259;28;20475;-76
2020/12/29 05:51:50;;;;;;;1.88;1.50;;;5.10;99.90;;;;;;5015133;28;20025;-76
2020/12/29 05:54:18;;;;;;;4.35;1.80;;;5.10;99.90;;;;;;5016306;28;20513;-75
2020/12/29 05:56:44;;;;;;;3.35;1.60;;;5.10;99.90;;;;;;5033915;28;20025;-75
2020/12/29 05:59:12;;;;;;;1.55;1.42;;;5.00;99.90;;;;;;5016419;28;20013;-76
2020/12/29 06:01:48;;;;;;;4.90;3.67;;;5.00;99.90;;;;;;5016396;28;20032;-76
2020/12/29 06:04:14;;;;;;;6.13;3.65;;;5.00;99.90;;;;;;5000816;28;20095;-76
2020/12/29 06:06:41;;;;;;;7.72;4.25;;;4.90;99.90;;;;;;4996591;28;20026;-76
2020/12/29 06:09:09;;;;;;;20.42;10.18;;;4.90;99.90;;;;;;4996872;28;20033;-76
2020/12/29 06:11:58;;;;;;;13.00;5.40;;;4.90;99.90;;;;;;4996362;28;20365;-76
2020/12/29 06:14:26;;;;;;;21.98;10.00;;;4.90;99.90;;;;;;5008657;28;20095;-75
2020/12/29 06:16:54;;;;;;;32.28;13.10;;;4.90;99.90;;;;;;5015916;28;20025;-76
2020/12/29 06:19:44;;;;;;;31.80;12.88;;;4.80;99.90;;;;;;5021202;28;20490;-73
2020/12/29 06:22:13;;;;;;;54.38;20.02;;;4.80;99.90;;;;;;5014810;28;20505;-76
2020/12/29 06:24:41;;;;;;;34.75;12.02;;;4.80;99.90;;;;;;5033284;28;20542;-76
2020/12/29 06:27:09;;;;;;;27.83;10.63;;;4.80;99.90;;;;;;5015148;28;20028;-76
2020/12/29 06:29:45;;;;;;;26.98;13.15;;;4.80;99.90;;;;;;5033675;28;20025;-76
2020/12/29 06:32:21;;;;;;;4.05;2.70;;;4.80;99.90;;;;;;5033571;28;20017;-76
2020/12/29 06:34:48;;;;;;;9.25;4.25;;;4.80;99.90;;;;;;5033635;28;20037;-76
2020/12/29 06:37:25;;;;;;;4.82;2.35;;;4.70;99.90;;;;;;5032927;28;20022;-74
2020/12/29 06:40:06;;;;;;;5.72;2.35;;;4.70;99.90;;;;;;5008665;28;20017;-76
2020/12/29 06:42:33;;;;;;;4.70;2.50;;;4.70;99.90;;;;;;5022742;28;20038;-75
2020/12/29 06:44:59;;;;;;;3.85;2.90;;;4.60;99.90;;;;;;5006792;28;20108;-75
2020/12/29 06:47:27;;;;;;;6.28;3.13;;;4.60;99.90;;;;;;5022242;28;20123;-75
2020/12/29 06:49:53;;;;;;;6.45;3.08;;;4.50;99.90;;;;;;5006874;28;20014;-75
2020/12/29 06:52:25;;;;;;;3.03;2.38;;;4.40;99.90;;;;;;5015383;28;20041;-75
2020/12/29 06:55:01;;;;;;;1.90;1.70;;;4.30;99.90;;;;;;5015395;28;20380;-76
2020/12/29 06:57:36;;;;;;;2.25;1.90;;;4.30;99.90;;;;;;5022669;28;20025;-75
2020/12/29 07:00:10;;;;;;;5.28;2.50;;;4.20;99.90;;;;;;5027372;28;20036;-75
2020/12/29 07:02:37;;;;;;;2.58;2.10;;;4.10;99.90;;;;;;5004972;28;20025;-75
2020/12/29 07:05:36;;;;;;;2.80;2.35;;;4.00;99.90;;;;;;5003637;28;20026;-75
2020/12/29 07:08:04;;;;;;;2.63;2.33;;;4.00;99.90;;;;;;4990679;28;20044;-75
2020/12/29 07:10:35;;;;;;;3.08;2.25;;;3.90;99.90;;;;;;5013605;28;20021;-75
2020/12/29 07:13:07;;;;;;;2.08;1.88;;;3.80;99.90;;;;;;5012080;28;20044;-75
2020/12/29 07:15:47;;;;;;;3.97;2.17;;;3.70;99.90;;;;;;5002173;28;20041;-76
2020/12/29 07:18:23;;;;;;;5.25;2.53;;;3.70;99.90;;;;;;5031243;28;20429;-75
2020/12/29 07:20:53;;;;;;;4.85;3.00;;;3.70;99.90;;;;;;5027742;28;20037;-76
2020/12/29 07:23:25;;;;;;;5.40;3.38;;;3.60;99.90;;;;;;5034063;28;20115;-76
2020/12/29 07:25:53;;;;;;;2.47;1.83;;;3.50;99.90;;;;;;5051574;28;20025;-75
2020/12/29 07:28:25;;;;;;;1.63;1.50;;;3.40;99.90;;;;;;5033867;28;20467;-75
2020/12/29 07:30:52;;;;;;;4.78;2.45;;;3.20;99.90;;;;;;5034838;28;20104;-76
2020/12/29 07:33:26;;;;;;;3.25;2.53;;;3.10;99.90;;;;;;5034787;28;20028;-76
2020/12/29 07:35:53;;;;;;;4.38;2.40;;;3.00;99.90;;;;;;5052737;28;20025;-76
2020/12/29 07:38:24;;;;;;;2.28;1.73;;;2.90;99.90;;;;;;5034794;28;20067;-76
2020/12/29 07:40:50;;;;;;;3.20;2.50;;;2.90;99.90;;;;;;5034760;28;20520;-76
2020/12/29 07:43:16;;;;;;;2.70;2.50;;;2.90;99.90;;;;;;5052544;28;20059;-75
2020/12/29 07:45:42;;;;;;;2.47;2.15;;;2.80;99.90;;;;;;5034661;28;20479;-76
2020/12/29 07:48:08;;;;;;;3.50;2.38;;;2.80;99.90;;;;;;5034609;28;20027;-76
2020/12/29 07:50:36;;;;;;;2.75;2.38;;;2.70;99.90;;;;;;5034724;28;20086;-76
2020/12/29 07:53:06;;;;;;;2.95;2.65;;;2.70;99.90;;;;;;5034609;28;20108;-76
2020/12/29 07:55:34;;;;;;;5.00;4.05;;;2.70;99.90;;;;;;5034211;28;20022;-76
2020/12/29 07:58:03;;;;;;;7.50;4.75;;;2.70;99.90;;;;;;5034451;28;20051;-76
2020/12/29 08:00:29;;;;;;;7.13;4.82;;;2.70;99.90;;;;;;5052311;28;20095;-76
2020/12/29 08:02:55;;;;;;;8.50;5.15;;;2.70;99.90;;;;;;5034356;28;20025;-76
2020/12/29 08:05:22;;;;;;;7.88;6.13;;;2.70;99.90;;;;;;5034514;28;20032;-76
2020/12/29 08:08:10;;;;;;;9.35;5.32;;;2.70;99.90;;;;;;5034294;28;20044;-76
2020/12/29 08:10:40;;;;;;;8.35;5.88;;;2.70;99.90;;;;;;5024175;28;20017;-75
2020/12/29 08:13:27;;;;;;;11.70;7.50;;;2.70;99.90;;;;;;5022500;28;20112;-75
2020/12/29 08:15:54;;;;;;;10.80;6.50;;;2.70;99.90;;;;;;5039533;28;20181;-77
2020/12/29 08:18:20;;;;;;;14.52;6.63;;;2.80;99.90;;;;;;5039862;28;20049;-77
2020/12/29 08:20:49;;;;;;;11.10;6.80;;;2.70;99.90;;;;;;5023554;28;20389;-78
2020/12/29 08:23:20;;;;;;;10.05;6.35;;;2.80;99.90;;;;;;5023717;28;20045;-77
2020/12/29 08:25:49;;;;;;;14.80;7.60;;;2.80;99.90;;;;;;5037486;28;20040;-76
2020/12/29 08:28:19;;;;;;;9.45;6.38;;;2.80;99.90;;;;;;5032519;28;20108;-77
2020/12/29 08:30:45;;;;;;;15.43;8.27;;;2.80;99.90;;;;;;5035845;28;20021;-77
2020/12/29 08:33:14;;;;;;;13.00;8.25;;;2.80;99.90;;;;;;5043600;28;20089;-77
2020/12/29 08:35:51;;;;;;;13.38;8.25;;;2.80;99.90;;;;;;5034723;28;20055;-77
2020/12/29 08:38:34;;;;;;;11.05;7.95;;;2.80;99.90;;;;;;5032931;28;20033;-76
2020/12/29 08:41:08;;;;;;;18.00;11.45;;;2.80;99.90;;;;;;5055633;28;20060;-77
2020/12/29 08:43:43;;;;;;;32.22;17.98;;;2.90;99.90;;;;;;5037655;28;20041;-76
2020/12/29 08:46:10;;;;;;;41.30;20.88;;;2.90;99.90;;;;;;5037674;28;20039;-77
2020/12/29 08:48:37;;;;;;;86.90;42.35;;;2.90;99.90;;;;;;5037325;28;20382;-77
2020/12/29 08:51:20;;;;;;;80.82;39.33;;;3.00;99.90;;;;;;5037554;28;20482;-77
2020/12/29 08:53:46;;;;;;;93.57;45.05;;;3.10;99.90;;;;;;5037465;28;20171;-77
2020/12/29 08:56:25;;;;;;;73.78;33.45;;;3.20;99.90;;;;;;5037451;28;20043;-77
2020/12/29 08:58:51;;;;;;;41.55;21.17;;;3.20;99.90;;;;;;5037179;28;20367;-77
2020/12/29 09:01:56;;;;;;;84.38;33.42;;;3.30;99.90;;;;;;5037115;28;20037;-77
2020/12/29 09:04:31;;;;;;;28.90;13.23;;;3.40;99.90;;;;;;4955023;29;20024;-77
2020/12/29 09:07:07;;;;;;;29.35;18.55;;;3.50;99.90;;;;;;5025750;28;20049;-76
2020/12/29 09:09:36;;;;;;;25.35;12.38;;;3.60;99.90;;;;;;5048538;28;20548;-76
2020/12/29 09:12:32;;;;;;;23.63;10.82;;;3.70;99.90;;;;;;5032877;28;20076;-77
2020/12/29 09:14:58;;;;;;;14.30;9.70;;;3.80;99.90;;;;;;5026815;28;20033;-77
2020/12/29 09:17:29;;;;;;;22.83;11.40;;;3.90;99.90;;;;;;5022039;28;20025;-77
2020/12/29 09:20:14;;;;;;;19.42;8.75;;;4.00;99.90;;;;;;5033243;28;20017;-77
2020/12/29 09:23:00;;;;;;;18.77;9.60;;;4.00;99.90;;;;;;5022181;28;20056;-77
2020/12/29 09:25:29;;;;;;;25.65;10.88;;;4.00;99.90;;;;;;5034934;28;20033;-76
2020/12/29 09:28:16;;;;;;;19.55;9.98;;;4.00;99.90;;;;;;5017022;28;20025;-74
2020/12/29 09:30:56;;;;;;;18.95;8.57;;;4.00;99.90;;;;;;5017080;28;20025;-74
2020/12/29 09:33:22;;;;;;;10.68;6.85;;;4.10;99.90;;;;;;5016513;28;20021;-74
2020/12/29 09:35:49;;;;;;;15.07;7.80;;;4.10;99.90;;;;;;5017363;28;20044;-75
2020/12/29 09:38:15;;;;;;;13.77;7.32;;;4.10;99.90;;;;;;5016912;28;20036;-75
2020/12/29 09:40:41;;;;;;;10.05;6.03;;;4.10;99.90;;;;;;5016355;28;20029;-76
2020/12/29 09:43:07;;;;;;;12.43;7.10;;;4.10;99.90;;;;;;5034092;28;20033;-75
2020/12/29 09:45:33;;;;;;;11.27;6.43;;;4.20;99.90;;;;;;5016861;28;20068;-76
2020/12/29 09:48:01;;;;;;;18.27;10.38;;;4.20;99.90;;;;;;5016672;28;20379;-76
2020/12/29 09:50:27;;;;;;;11.15;5.55;;;4.20;99.90;;;;;;5016694;28;20387;-76
2020/12/29 09:52:53;;;;;;;7.97;4.97;;;4.30;99.90;;;;;;5034396;28;20033;-75
2020/12/29 09:55:18;;;;;;;11.80;5.95;;;4.30;99.90;;;;;;5016604;28;20426;-75
2020/12/29 09:57:44;;;;;;;8.88;5.57;;;4.40;99.90;;;;;;5015684;28;20617;-75
2020/12/29 10:00:09;;;;;;;17.65;7.53;;;4.50;99.90;;;;;;5034119;28;20030;-75
2020/12/29 10:02:35;;;;;;;19.45;7.70;;;4.60;99.20;;;;;;5031965;28;20032;-76
2020/12/29 10:05:01;;;;;;;5.88;3.63;;;4.60;99.90;;;;;;5032701;28;20391;-75
2020/12/29 10:07:27;;;;;;;7.97;4.30;;;4.70;97.80;;;;;;5032631;28;20033;-75
2020/12/29 10:09:52;;;;;;;7.25;4.10;;;4.70;98.10;;;;;;5033929;28;20018;-76
2020/12/29 10:12:19;;;;;;;5.00;3.35;;;4.70;95.70;;;;;;5034014;28;20018;-75
2020/12/29 10:14:45;;;;;;;8.50;4.57;;;4.80;95.80;;;;;;5016215;28;20036;-75
2020/12/29 10:17:11;;;;;;;11.23;4.78;;;4.80;96.00;;;;;;5033896;28;20475;-75
2020/12/29 10:19:37;;;;;;;9.48;4.40;;;4.90;92.10;;;;;;5033891;28;20104;-76
2020/12/29 10:22:02;;;;;;;5.88;4.35;;;5.00;94.00;;;;;;5016004;28;20041;-75
2020/12/29 10:24:29;;;;;;;7.30;4.32;;;5.10;93.40;;;;;;5032480;28;20014;-76
2020/12/29 10:26:56;;;;;;;9.55;3.95;;;5.10;89.10;;;;;;5015966;28;20026;-75
2020/12/29 10:29:21;;;;;;;6.47;4.60;;;5.10;92.50;;;;;;5015971;28;20022;-76
2020/12/29 10:31:47;;;;;;;5.93;3.42;;;5.20;91.10;;;;;;5032282;28;20033;-76
2020/12/29 10:34:14;;;;;;;7.90;4.53;;;5.20;87.80;;;;;;5032386;28;20498;-76
2020/12/29 10:36:40;;;;;;;6.75;4.07;;;5.30;87.20;;;;;;5024941;28;20028;-77
2020/12/29 10:39:08;;;;;;;8.35;4.60;;;5.30;88.20;;;;;;5053200;28;20029;-75
2020/12/29 10:41:36;;;;;;;7.70;3.78;;;5.40;87.10;;;;;;5035197;28;20046;-74
2020/12/29 10:44:03;;;;;;;6.00;3.45;;;5.40;83.80;;;;;;5035201;28;20045;-75
2020/12/29 10:46:29;;;;;;;7.18;4.75;;;5.40;84.20;;;;;;5035043;28;20025;-74
2020/12/29 10:48:54;;;;;;;5.75;3.20;;;5.50;85.30;;;;;;5035625;28;20021;-74
2020/12/29 10:51:22;;;;;;;9.07;3.80;;;5.50;81.00;;;;;;5051880;28;20031;-75
2020/12/29 10:53:48;;;;;;;9.38;4.93;;;5.60;79.50;;;;;;5032100;28;20021;-75
2020/12/29 10:56:14;;;;;;;6.22;3.97;;;5.60;80.10;;;;;;5035228;28;20032;-74
2020/12/29 10:58:43;;;;;;;8.70;4.47;;;5.70;81.60;;;;;;5045290;28;20028;-74
2020/12/29 11:01:12;;;;;;;7.40;3.22;;;5.70;81.00;;;;;;5051801;28;20036;-75
2020/12/29 11:03:39;;;;;;;9.70;4.55;;;5.70;79.90;;;;;;5030132;28;20025;-75
2020/12/29 11:06:15;;;;;;;11.45;5.13;;;5.80;80.90;;;;;;5015441;28;20406;-76
2020/12/29 11:08:41;;;;;;;6.63;3.65;;;5.90;76.30;;;;;;5015249;28;20029;-76
2020/12/29 11:11:07;;;;;;;6.00;3.40;;;5.80;77.50;;;;;;5033097;28;20073;-75
2020/12/29 11:13:33;;;;;;;6.13;3.95;;;5.90;77.90;;;;;;5032329;28;20018;-76
2020/12/29 11:15:59;;;;;;;4.18;2.47;;;5.90;76.70;;;;;;5016959;28;20029;-78
2020/12/29 11:18:25;;;;;;;3.63;2.13;;;5.90;72.70;;;;;;5032117;28;20075;-76
2020/12/29 11:20:52;;;;;;;8.77;3.13;;;5.90;71.70;;;;;;5040451;28;20037;-76
2020/12/29 11:23:18;;;;;;;4.75;3.13;;;6.00;74.20;;;;;;5051375;28;20029;-76
2020/12/29 11:25:44;;;;;;;5.47;2.88;;;5.90;74.00;;;;;;5034268;28;20027;-75
2020/12/29 11:28:10;;;;;;;13.82;5.43;;;6.00;71.90;;;;;;5039636;28;20017;-77
2020/12/29 11:30:36;;;;;;;15.82;6.13;;;6.00;73.50;;;;;;5042734;28;20088;-76
2020/12/29 11:33:01;;;;;;;8.60;4.32;;;6.00;75.00;;;;;;5031357;28;20067;-77
2020/12/29 11:35:27;;;;;;;6.88;3.30;;;6.00;73.10;;;;;;5033159;28;20027;-77
2020/12/29 11:37:52;;;;;;;6.85;3.65;;;6.10;73.70;;;;;;5043863;28;20026;-77
2020/12/29 11:40:21;;;;;;;6.07;2.72;;;6.10;73.60;;;;;;5030861;28;20128;-77
2020/12/29 11:42:50;;;;;;;2.80;2.25;;;6.10;73.80;;;;;;5032609;28;20101;-76
2020/12/29 11:45:16;;;;;;;13.18;5.28;;;6.10;73.50;;;;;;5014904;28;20032;-77
2020/12/29 11:47:41;;;;;;;15.35;5.68;;;6.20;71.50;;;;;;5031199;28;20112;-76
2020/12/29 11:50:10;;;;;;;7.32;2.97;;;6.20;70.40;;;;;;5015001;28;20071;-77
2020/12/29 11:52:35;;;;;;;237.48;79.05;;;6.20;70.50;;;;;;5014827;28;20029;-77
2020/12/29 11:55:01;;;;;;;198.00;62.72;;;6.20;70.20;;;;;;5030727;28;20017;-78
2020/12/29 11:57:27;;;;;;;63.10;18.95;;;6.20;68.60;;;;;;5030015;28;20105;-77
2020/12/29 12:00:05;;;;;;;35.10;11.55;;;6.30;69.50;;;;;;5040372;28;20108;-77
2020/12/29 12:02:30;;;;;;;34.40;10.60;;;6.30;69.00;;;;;;5023961;28;20072;-77
2020/12/29 12:04:56;;;;;;;622.13;230.80;;;6.30;69.50;;;;;;5056312;28;20057;-76
2020/12/29 12:07:22;;;;;;;73.60;24.60;;;6.40;70.90;;;;;;5056224;28;20033;-77
2020/12/29 12:09:47;;;;;;;44.20;11.45;;;6.40;72.10;;;;;;5038168;28;20466;-76
2020/12/29 12:12:13;;;;;;;19.33;5.20;;;6.40;68.70;;;;;;5038554;28;20397;-77
2020/12/29 12:14:38;;;;;;;14.40;5.75;;;6.40;67.30;;;;;;5056154;28;20029;-77
2020/12/29 12:17:04;;;;;;;35.72;9.48;;;6.50;67.90;;;;;;5054815;28;20060;-76
2020/12/29 12:19:30;;;;;;;15.10;5.22;;;6.50;69.70;;;;;;5038240;28;20111;-77
2020/12/29 12:21:55;;;;;;;105.03;39.05;;;6.50;69.10;;;;;;5055935;28;20037;-77
2020/12/29 12:24:21;;;;;;;51.85;14.38;;;6.60;67.10;;;;;;5038134;28;20017;-77
2020/12/29 12:26:47;;;;;;;20.33;4.65;;;6.60;64.70;;;;;;5037544;28;20111;-77
2020/12/29 12:29:12;;;;;;;16.10;5.20;;;6.60;64.60;;;;;;5038064;28;20052;-77
2020/12/29 12:31:38;;;;;;;8.30;3.80;;;6.60;65.10;;;;;;5037964;28;20460;-77
2020/12/29 12:34:04;;;;;;;8.57;3.42;;;6.60;64.40;;;;;;5055825;28;20036;-77
2020/12/29 12:36:30;;;;;;;12.73;3.22;;;6.60;66.20;;;;;;5055801;28;20017;-77
2020/12/29 12:38:55;;;;;;;5.82;3.05;;;6.60;65.80;;;;;;5037794;28;20013;-76
2020/12/29 12:41:21;;;;;;;11.52;4.43;;;6.60;64.10;;;;;;5053867;28;20028;-77
2020/12/29 12:43:47;;;;;;;8.20;3.60;;;6.60;63.80;;;;;;5054389;28;20029;-77
2020/12/29 12:46:13;;;;;;;4.20;2.75;;;6.60;61.80;;;;;;5054825;28;20501;-78
2020/12/29 12:48:42;;;;;;;7.65;4.07;;;6.60;62.80;;;;;;5036466;28;20025;-77
2020/12/29 12:51:08;;;;;;;5.82;3.30;;;6.60;61.30;;;;;;5054494;28;20040;-77
2020/12/29 12:53:34;;;;;;;6.25;2.95;;;6.60;63.60;;;;;;5036868;28;20029;-77
2020/12/29 12:55:59;;;;;;;4.82;3.05;;;6.60;63.50;;;;;;5037488;28;20021;-77
2020/12/29 12:58:25;;;;;;;7.85;4.07;;;6.60;63.50;;;;;;5055232;28;20490;-77